Fort Myer, Virginia
Current Conditions -  °F | °C
As of 11:52 AM on Friday 31 Oct 2014 (Local Time) from KDCA Reporting Station
Broken Clouds Broken Clouds  
Wind Chill: 56°   Ceiling: 6000
Heat Index: 56°   Visibility: 10mi
Dew Point: 37°   Wind: 7mph
Humidity: 49%   Direction: 40°NE
Pressure: 29.96"   Gusts: NA
Location:  38.88°N, 77.08°W
Report Text: KDCA 311552Z 04006KT 10SM FEW035 BKN060 13/03 A2996 RMK AO2 SLP147 T01330028
Loading
Personal Weather Stations






























Interactive Weather Map
Tropical Storm Tracking
New forecast layout! Learn more

10-Day Weather Forecast

Advertisements
Track Severe Weather on mobile